sensor_id;sensor_type;location;lat;lon;timestamp;pressure;altitude;pressure_sealevel;temperature;humidity
58979;BME280;44763;50.464;30.612;2023-09-19T00:00:07;100706.55;;;16.54;75.26
58979;BME280;44763;50.464;30.612;2023-09-19T00:02:09;100707.14;;;16.54;75.07
58979;BME280;44763;50.464;30.612;2023-09-19T00:04:13;100704.08;;;16.53;75.42
58979;BME280;44763;50.464;30.612;2023-09-19T00:06:16;100706.02;;;16.48;75.66
58979;BME280;44763;50.464;30.612;2023-09-19T00:08:18;100713.23;;;16.44;75.50
58979;BME280;44763;50.464;30.612;2023-09-19T00:10:26;100717.27;;;16.41;75.23
58979;BME280;44763;50.464;30.612;2023-09-19T00:12:28;100714.98;;;16.39;75.37
58979;BME280;44763;50.464;30.612;2023-09-19T00:14:30;100718.36;;;16.40;75.21
58979;BME280;44763;50.464;30.612;2023-09-19T00:16:36;100716.58;;;16.39;75.24
58979;BME280;44763;50.464;30.612;2023-09-19T00:18:38;100714.44;;;16.39;75.19
58979;BME280;44763;50.464;30.612;2023-09-19T00:20:40;100717.70;;;16.39;75.03
58979;BME280;44763;50.464;30.612;2023-09-19T00:22:44;100707.15;;;16.32;74.94
58979;BME280;44763;50.464;30.612;2023-09-19T00:24:46;100716.59;;;16.41;74.84
58979;BME280;44763;50.464;30.612;2023-09-19T00:26:48;100704.05;;;16.33;74.88
58979;BME280;44763;50.464;30.612;2023-09-19T00:28:53;100715.89;;;16.41;74.81
58979;BME280;44763;50.464;30.612;2023-09-19T00:30:55;100714.22;;;16.41;74.77
58979;BME280;44763;50.464;30.612;2023-09-19T00:32:58;100713.60;;;16.40;74.79
58979;BME280;44763;50.464;30.612;2023-09-19T00:35:02;100713.52;;;16.40;74.67
58979;BME280;44763;50.464;30.612;2023-09-19T00:37:04;100712.45;;;16.39;74.56
58979;BME280;44763;50.464;30.612;2023-09-19T00:39:06;100709.38;;;16.40;74.56
58979;BME280;44763;50.464;30.612;2023-09-19T00:41:10;100709.34;;;16.39;74.65
58979;BME280;44763;50.464;30.612;2023-09-19T00:43:14;100707.55;;;16.38;74.74
58979;BME280;44763;50.464;30.612;2023-09-19T00:45:17;100709.20;;;16.37;74.76
58979;BME280;44763;50.464;30.612;2023-09-19T00:47:20;100707.05;;;16.37;74.80
58979;BME280;44763;50.464;30.612;2023-09-19T00:49:22;100706.89;;;16.35;74.75
58979;BME280;44763;50.464;30.612;2023-09-19T00:51:26;100709.02;;;16.34;75.10
58979;BME280;44763;50.464;30.612;2023-09-19T00:53:30;100705.98;;;16.34;75.01
58979;BME280;44763;50.464;30.612;2023-09-19T00:55:32;100709.09;;;16.35;75.22
58979;BME280;44763;50.464;30.612;2023-09-19T00:57:37;100707.92;;;16.34;75.32
58979;BME280;44763;50.464;30.612;2023-09-19T00:59:44;100709.38;;;16.36;75.13
58979;BME280;44763;50.464;30.612;2023-09-19T01:01:45;100704.69;;;16.37;74.95
58979;BME280;44763;50.464;30.612;2023-09-19T01:03:47;100704.45;;;16.39;74.73
58979;BME280;44763;50.464;30.612;2023-09-19T01:05:50;100711.09;;;16.39;74.94
58979;BME280;44763;50.464;30.612;2023-09-19T01:07:52;100706.19;;;16.37;75.11
58979;BME280;44763;50.464;30.612;2023-09-19T01:09:57;100704.78;;;16.35;74.98
58979;BME280;44763;50.464;30.612;2023-09-19T01:12:02;100706.36;;;16.33;75.08
58979;BME280;44763;50.464;30.612;2023-09-19T01:14:31;100707.75;;;16.31;75.12
58979;BME280;44763;50.464;30.612;2023-09-19T01:16:42;100704.45;;;16.29;75.11
58979;BME280;44763;50.464;30.612;2023-09-19T01:22:13;100704.17;;;16.21;75.48
58979;BME280;44763;50.464;30.612;2023-09-19T01:31:23;100708.92;;;15.99;77.70
58979;BME280;44763;50.464;30.612;2023-09-19T01:33:27;100706.19;;;15.93;77.73
58979;BME280;44763;50.464;30.612;2023-09-19T01:35:29;100706.58;;;15.88;78.34
58979;BME280;44763;50.464;30.612;2023-09-19T01:37:31;100702.20;;;15.81;78.87
58979;BME280;44763;50.464;30.612;2023-09-19T01:39:33;100706.15;;;15.77;79.37
58979;BME280;44763;50.464;30.612;2023-09-19T01:41:45;100700.73;;;15.70;79.50
58979;BME280;44763;50.464;30.612;2023-09-19T01:43:49;100704.09;;;15.64;79.99
58979;BME280;44763;50.464;30.612;2023-09-19T01:46:04;100701.73;;;15.59;80.00
58979;BME280;44763;50.464;30.612;2023-09-19T01:48:20;100701.74;;;15.54;80.31
58979;BME280;44763;50.464;30.612;2023-09-19T01:50:35;100702.58;;;15.51;80.46
58979;BME280;44763;50.464;30.612;2023-09-19T01:52:57;100701.20;;;15.50;80.19
58979;BME280;44763;50.464;30.612;2023-09-19T01:55:08;100698.95;;;15.56;79.79
58979;BME280;44763;50.464;30.612;2023-09-19T01:57:20;100694.52;;;15.62;79.56
58979;BME280;44763;50.464;30.612;2023-09-19T01:59:34;100694.15;;;15.69;79.13
58979;BME280;44763;50.464;30.612;2023-09-19T02:01:37;100690.65;;;15.75;78.86
58979;BME280;44763;50.464;30.612;2023-09-19T02:03:40;100695.46;;;15.78;78.62
58979;BME280;44763;50.464;30.612;2023-09-19T02:05:48;100690.00;;;15.80;78.33
58979;BME280;44763;50.464;30.612;2023-09-19T02:07:52;100691.23;;;15.81;78.22
58979;BME280;44763;50.464;30.612;2023-09-19T02:09:55;100689.20;;;15.82;78.24
58979;BME280;44763;50.464;30.612;2023-09-19T02:11:56;100687.59;;;15.82;78.27
58979;BME280;44763;50.464;30.612;2023-09-19T02:13:58;100686.31;;;15.80;78.30
58979;BME280;44763;50.464;30.612;2023-09-19T02:16:01;100679.34;;;15.79;78.39
58979;BME280;44763;50.464;30.612;2023-09-19T02:18:04;100678.80;;;15.78;78.26
58979;BME280;44763;50.464;30.612;2023-09-19T02:20:07;100677.61;;;15.76;78.63
58979;BME280;44763;50.464;30.612;2023-09-19T02:22:11;100675.45;;;15.77;78.31
58979;BME280;44763;50.464;30.612;2023-09-19T02:24:13;100677.56;;;15.78;78.42
58979;BME280;44763;50.464;30.612;2023-09-19T02:26:16;100676.28;;;15.78;78.40
58979;BME280;44763;50.464;30.612;2023-09-19T02:28:21;100673.44;;;15.75;78.29
58979;BME280;44763;50.464;30.612;2023-09-19T02:30:25;100669.60;;;15.74;78.31
58979;BME280;44763;50.464;30.612;2023-09-19T02:32:27;100670.89;;;15.75;78.64
58979;BME280;44763;50.464;30.612;2023-09-19T02:34:31;100657.60;;;15.65;78.53
58979;BME280;44763;50.464;30.612;2023-09-19T02:36:32;100669.23;;;15.68;78.93
58979;BME280;44763;50.464;30.612;2023-09-19T02:38:34;100668.08;;;15.64;78.94
58979;BME280;44763;50.464;30.612;2023-09-19T02:40:36;100670.75;;;15.62;78.96
58979;BME280;44763;50.464;30.612;2023-09-19T02:42:38;100669.42;;;15.61;79.02
58979;BME280;44763;50.464;30.612;2023-09-19T02:44:40;100665.46;;;15.61;79.36
58979;BME280;44763;50.464;30.612;2023-09-19T02:46:42;100665.33;;;15.61;79.56
58979;BME280;44763;50.464;30.612;2023-09-19T02:48:44;100660.05;;;15.61;79.70
58979;BME280;44763;50.464;30.612;2023-09-19T02:50:49;100655.21;;;15.59;79.71
58979;BME280;44763;50.464;30.612;2023-09-19T02:52:51;100655.84;;;15.55;79.84
58979;BME280;44763;50.464;30.612;2023-09-19T02:54:53;100653.14;;;15.52;79.99
58979;BME280;44763;50.464;30.612;2023-09-19T02:56:55;100652.73;;;15.48;80.23
58979;BME280;44763;50.464;30.612;2023-09-19T02:58:57;100655.23;;;15.45;80.75
58979;BME280;44763;50.464;30.612;2023-09-19T03:00:59;100649.21;;;15.40;80.90
58979;BME280;44763;50.464;30.612;2023-09-19T03:03:01;100651.99;;;15.36;81.18
58979;BME280;44763;50.464;30.612;2023-09-19T03:05:05;100646.58;;;15.37;80.93
58979;BME280;44763;50.464;30.612;2023-09-19T03:07:09;100644.17;;;15.37;81.13
58979;BME280;44763;50.464;30.612;2023-09-19T03:09:13;100642.90;;;15.38;80.91
58979;BME280;44763;50.464;30.612;2023-09-19T03:11:15;100641.92;;;15.37;80.67
58979;BME280;44763;50.464;30.612;2023-09-19T03:13:24;100641.95;;;15.37;80.46
58979;BME280;44763;50.464;30.612;2023-09-19T03:15:27;100640.61;;;15.34;80.40
58979;BME280;44763;50.464;30.612;2023-09-19T03:17:29;100641.73;;;15.31;80.42
58979;BME280;44763;50.464;30.612;2023-09-19T03:19:31;100642.32;;;15.28;80.60
58979;BME280;44763;50.464;30.612;2023-09-19T03:21:35;100642.09;;;15.26;80.40
58979;BME280;44763;50.464;30.612;2023-09-19T03:23:37;100633.34;;;15.18;80.54
58979;BME280;44763;50.464;30.612;2023-09-19T03:25:40;100637.04;;;15.23;80.28
58979;BME280;44763;50.464;30.612;2023-09-19T03:27:42;100640.48;;;15.26;80.00
58979;BME280;44763;50.464;30.612;2023-09-19T03:29:44;100633.64;;;15.27;79.67
58979;BME280;44763;50.464;30.612;2023-09-19T03:31:49;100636.25;;;15.28;79.36
58979;BME280;44763;50.464;30.612;2023-09-19T03:33:51;100635.39;;;15.26;79.39
58979;BME280;44763;50.464;30.612;2023-09-19T03:35:53;100633.86;;;15.23;79.53
58979;BME280;44763;50.464;30.612;2023-09-19T03:37:57;100639.77;;;15.22;79.62
58979;BME280;44763;50.464;30.612;2023-09-19T03:39:59;100639.59;;;15.21;79.47
58979;BME280;44763;50.464;30.612;2023-09-19T03:42:06;100639.00;;;15.18;79.50
58979;BME280;44763;50.464;30.612;2023-09-19T03:44:10;100643.66;;;15.17;79.54
58979;BME280;44763;50.464;30.612;2023-09-19T03:46:12;100639.96;;;15.15;79.29
58979;BME280;44763;50.464;30.612;2023-09-19T03:48:17;100638.02;;;15.16;79.37
58979;BME280;44763;50.464;30.612;2023-09-19T03:50:19;100635.90;;;15.18;79.23
58979;BME280;44763;50.464;30.612;2023-09-19T03:52:21;100637.92;;;15.21;79.04
58979;BME280;44763;50.464;30.612;2023-09-19T03:54:22;100634.70;;;15.22;78.83
58979;BME280;44763;50.464;30.612;2023-09-19T03:56:24;100634.77;;;15.24;78.66
58979;BME280;44763;50.464;30.612;2023-09-19T03:58:26;100630.10;;;15.24;78.51
58979;BME280;44763;50.464;30.612;2023-09-19T04:00:28;100632.38;;;15.25;78.38
58979;BME280;44763;50.464;30.612;2023-09-19T04:02:32;100636.02;;;15.26;78.28
58979;BME280;44763;50.464;30.612;2023-09-19T04:04:35;100629.92;;;15.28;78.11
58979;BME280;44763;50.464;30.612;2023-09-19T04:06:37;100630.73;;;15.32;78.06
58979;BME280;44763;50.464;30.612;2023-09-19T04:08:38;100629.61;;;15.43;77.79
58979;BME280;44763;50.464;30.612;2023-09-19T04:10:42;100628.63;;;15.62;76.89
58979;BME280;44763;50.464;30.612;2023-09-19T04:12:52;100626.33;;;15.87;75.94
58979;BME280;44763;50.464;30.612;2023-09-19T04:14:54;100628.08;;;16.15;74.49
58979;BME280;44763;50.464;30.612;2023-09-19T04:16:56;100626.47;;;16.41;73.00
58979;BME280;44763;50.464;30.612;2023-09-19T04:18:59;100621.81;;;16.68;72.19
58979;BME280;44763;50.464;30.612;2023-09-19T04:21:01;100618.61;;;16.96;70.83
58979;BME280;44763;50.464;30.612;2023-09-19T04:23:05;100624.76;;;17.24;69.04
58979;BME280;44763;50.464;30.612;2023-09-19T04:25:07;100624.55;;;17.45;68.09
58979;BME280;44763;50.464;30.612;2023-09-19T04:27:09;100618.52;;;17.64;66.98
58979;BME280;44763;50.464;30.612;2023-09-19T04:29:11;100621.13;;;17.80;66.02
58979;BME280;44763;50.464;30.612;2023-09-19T04:31:15;100620.78;;;17.95;65.57
58979;BME280;44763;50.464;30.612;2023-09-19T04:33:18;100621.25;;;18.11;64.81
58979;BME280;44763;50.464;30.612;2023-09-19T04:35:21;100616.22;;;18.30;63.97
58979;BME280;44763;50.464;30.612;2023-09-19T04:37:24;100605.11;;;18.46;63.22
58979;BME280;44763;50.464;30.612;2023-09-19T04:39:26;100622.06;;;18.77;62.00
58979;BME280;44763;50.464;30.612;2023-09-19T04:41:29;100622.23;;;18.98;61.25
58979;BME280;44763;50.464;30.612;2023-09-19T04:43:31;100620.24;;;19.19;60.62
58979;BME280;44763;50.464;30.612;2023-09-19T04:45:33;100608.79;;;19.35;59.68
58979;BME280;44763;50.464;30.612;2023-09-19T04:47:36;100617.04;;;19.65;58.54
58979;BME280;44763;50.464;30.612;2023-09-19T04:49:40;100611.86;;;19.91;57.94
58979;BME280;44763;50.464;30.612;2023-09-19T04:51:42;100612.76;;;20.15;56.88
58979;BME280;44763;50.464;30.612;2023-09-19T04:53:44;100606.69;;;20.39;55.81
58979;BME280;44763;50.464;30.612;2023-09-19T04:55:50;100602.83;;;20.68;54.99
58979;BME280;44763;50.464;30.612;2023-09-19T04:57:53;100602.38;;;20.96;53.57
58979;BME280;44763;50.464;30.612;2023-09-19T04:59:55;100594.64;;;21.00;52.71
58979;BME280;44763;50.464;30.612;2023-09-19T05:01:57;100601.84;;;21.08;52.89
58979;BME280;44763;50.464;30.612;2023-09-19T05:03:58;100600.61;;;21.17;52.40
58979;BME280;44763;50.464;30.612;2023-09-19T05:06:00;100600.43;;;21.35;52.44
58979;BME280;44763;50.464;30.612;2023-09-19T05:08:02;100597.13;;;21.68;51.53
58979;BME280;44763;50.464;30.612;2023-09-19T05:10:07;100594.21;;;22.04;50.05
58979;BME280;44763;50.464;30.612;2023-09-19T05:12:09;100593.98;;;22.22;49.00
58979;BME280;44763;50.464;30.612;2023-09-19T05:14:12;100599.38;;;22.19;48.78
58979;BME280;44763;50.464;30.612;2023-09-19T05:16:14;100595.10;;;22.14;48.95
58979;BME280;44763;50.464;30.612;2023-09-19T05:18:15;100594.65;;;22.11;48.72
58979;BME280;44763;50.464;30.612;2023-09-19T05:20:18;100596.67;;;22.07;48.85
58979;BME280;44763;50.464;30.612;2023-09-19T05:22:32;100594.95;;;22.02;48.82
58979;BME280;44763;50.464;30.612;2023-09-19T05:24:34;100592.02;;;22.03;48.91
58979;BME280;44763;50.464;30.612;2023-09-19T05:26:37;100588.73;;;22.07;48.86
58979;BME280;44763;50.464;30.612;2023-09-19T05:28:39;100590.23;;;22.21;48.59
58979;BME280;44763;50.464;30.612;2023-09-19T05:30:41;100587.73;;;22.41;48.39
58979;BME280;44763;50.464;30.612;2023-09-19T05:32:49;100590.34;;;22.56;47.55
58979;BME280;44763;50.464;30.612;2023-09-19T05:34:50;100590.77;;;22.57;47.12
58979;BME280;44763;50.464;30.612;2023-09-19T05:36:55;100588.39;;;22.59;47.26
58979;BME280;44763;50.464;30.612;2023-09-19T05:38:56;100592.33;;;22.71;47.20
58979;BME280;44763;50.464;30.612;2023-09-19T05:40:59;100595.30;;;22.92;47.03
58979;BME280;44763;50.464;30.612;2023-09-19T05:43:01;100594.46;;;23.05;46.08
58979;BME280;44763;50.464;30.612;2023-09-19T05:45:06;100600.94;;;22.99;46.19
58979;BME280;44763;50.464;30.612;2023-09-19T05:47:08;100604.95;;;22.88;46.34
58979;BME280;44763;50.464;30.612;2023-09-19T05:49:10;100605.38;;;22.83;46.44
58979;BME280;44763;50.464;30.612;2023-09-19T05:51:12;100603.00;;;22.85;46.55
58979;BME280;44763;50.464;30.612;2023-09-19T05:53:14;100609.64;;;22.97;46.45
58979;BME280;44763;50.464;30.612;2023-09-19T05:55:17;100609.06;;;23.09;46.02
58979;BME280;44763;50.464;30.612;2023-09-19T05:57:18;100608.77;;;23.17;45.98
58979;BME280;44763;50.464;30.612;2023-09-19T05:59:20;100607.33;;;23.22;45.53
58979;BME280;44763;50.464;30.612;2023-09-19T06:01:22;100605.92;;;23.23;45.53
58979;BME280;44763;50.464;30.612;2023-09-19T06:03:24;100610.29;;;23.15;45.69
58979;BME280;44763;50.464;30.612;2023-09-19T06:05:27;100607.02;;;22.96;46.28
58979;BME280;44763;50.464;30.612;2023-09-19T06:07:29;100604.34;;;22.86;46.48
58979;BME280;44763;50.464;30.612;2023-09-19T06:09:38;100607.09;;;22.87;46.58
58979;BME280;44763;50.464;30.612;2023-09-19T06:11:43;100603.85;;;22.92;46.89
58979;BME280;44763;50.464;30.612;2023-09-19T06:13:46;100603.66;;;23.04;46.72
58979;BME280;44763;50.464;30.612;2023-09-19T06:15:49;100602.20;;;23.18;46.63
58979;BME280;44763;50.464;30.612;2023-09-19T06:17:53;100601.54;;;23.30;46.18
58979;BME280;44763;50.464;30.612;2023-09-19T06:19:58;100602.40;;;23.46;46.22
58979;BME280;44763;50.464;30.612;2023-09-19T06:22:01;100603.42;;;23.67;46.22
58979;BME280;44763;50.464;30.612;2023-09-19T06:24:03;100605.98;;;23.81;46.12
58979;BME280;44763;50.464;30.612;2023-09-19T06:26:05;100604.46;;;23.86;45.74
58979;BME280;44763;50.464;30.612;2023-09-19T06:28:08;100605.88;;;23.84;45.80
58979;BME280;44763;50.464;30.612;2023-09-19T06:30:14;100604.79;;;23.82;45.71
58979;BME280;44763;50.464;30.612;2023-09-19T06:32:16;100605.64;;;23.78;46.35
58979;BME280;44763;50.464;30.612;2023-09-19T06:34:18;100606.34;;;23.76;46.45
58979;BME280;44763;50.464;30.612;2023-09-19T06:36:20;100603.95;;;23.55;47.10
58979;BME280;44763;50.464;30.612;2023-09-19T06:38:21;100604.75;;;23.17;47.76
58979;BME280;44763;50.464;30.612;2023-09-19T06:40:23;100605.03;;;22.70;49.22
58979;BME280;44763;50.464;30.612;2023-09-19T06:42:26;100605.05;;;22.20;50.59
58979;BME280;44763;50.464;30.612;2023-09-19T06:44:29;100606.10;;;21.75;52.27
58979;BME280;44763;50.464;30.612;2023-09-19T06:46:33;100605.02;;;21.47;53.44
58979;BME280;44763;50.464;30.612;2023-09-19T06:48:36;100604.95;;;21.19;54.82
58979;BME280;44763;50.464;30.612;2023-09-19T06:50:38;100596.95;;;20.97;55.45
58979;BME280;44763;50.464;30.612;2023-09-19T06:52:43;100599.89;;;20.83;56.59
58979;BME280;44763;50.464;30.612;2023-09-19T06:54:45;100588.46;;;20.64;57.17
58979;BME280;44763;50.464;30.612;2023-09-19T06:56:47;100598.78;;;20.60;57.18
58979;BME280;44763;50.464;30.612;2023-09-19T06:58:48;100602.70;;;20.51;56.97
58979;BME280;44763;50.464;30.612;2023-09-19T07:00:50;100597.95;;;20.44;57.30
58979;BME280;44763;50.464;30.612;2023-09-19T07:02:59;100600.44;;;20.40;57.21
58979;BME280;44763;50.464;30.612;2023-09-19T07:05:06;100600.93;;;20.37;57.41
58979;BME280;44763;50.464;30.612;2023-09-19T07:07:09;100606.58;;;20.35;56.93
58979;BME280;44763;50.464;30.612;2023-09-19T07:09:12;100602.66;;;20.33;56.73
58979;BME280;44763;50.464;30.612;2023-09-19T07:11:14;100592.17;;;20.24;57.03
58979;BME280;44763;50.464;30.612;2023-09-19T07:13:17;100597.82;;;20.32;57.19
58979;BME280;44763;50.464;30.612;2023-09-19T07:15:19;100604.05;;;20.40;56.64
58979;BME280;44763;50.464;30.612;2023-09-19T07:17:22;100604.79;;;20.46;56.13
58979;BME280;44763;50.464;30.612;2023-09-19T07:19:26;100604.73;;;20.45;56.08
58979;BME280;44763;50.464;30.612;2023-09-19T07:21:31;100600.60;;;20.44;56.34
58979;BME280;44763;50.464;30.612;2023-09-19T07:23:34;100602.31;;;20.46;56.62
58979;BME280;44763;50.464;30.612;2023-09-19T07:25:36;100595.85;;;20.49;56.65
58979;BME280;44763;50.464;30.612;2023-09-19T07:27:38;100600.75;;;20.54;56.72
58979;BME280;44763;50.464;30.612;2023-09-19T07:29:40;100602.54;;;20.58;56.30
58979;BME280;44763;50.464;30.612;2023-09-19T07:31:41;100600.81;;;20.55;56.49
58979;BME280;44763;50.464;30.612;2023-09-19T07:33:44;100599.09;;;20.51;56.83
58979;BME280;44763;50.464;30.612;2023-09-19T07:35:47;100594.58;;;20.50;57.26
58979;BME280;44763;50.464;30.612;2023-09-19T07:37:49;100599.59;;;20.53;57.46
58979;BME280;44763;50.464;30.612;2023-09-19T07:39:52;100593.11;;;20.54;57.47
58979;BME280;44763;50.464;30.612;2023-09-19T07:41:55;100594.01;;;20.56;57.90
58979;BME280;44763;50.464;30.612;2023-09-19T07:43:56;100590.95;;;20.64;57.53
58979;BME280;44763;50.464;30.612;2023-09-19T07:46:03;100586.09;;;20.71;57.84
58979;BME280;44763;50.464;30.612;2023-09-19T07:48:05;100588.80;;;20.80;58.40
58979;BME280;44763;50.464;30.612;2023-09-19T07:50:08;100582.89;;;20.89;58.54
58979;BME280;44763;50.464;30.612;2023-09-19T07:52:11;100584.37;;;20.97;58.52
58979;BME280;44763;50.464;30.612;2023-09-19T07:54:15;100584.39;;;21.04;58.41
58979;BME280;44763;50.464;30.612;2023-09-19T07:56:17;100579.34;;;21.08;58.49
58979;BME280;44763;50.464;30.612;2023-09-19T07:58:21;100580.73;;;21.14;58.65
58979;BME280;44763;50.464;30.612;2023-09-19T08:00:24;100579.50;;;21.22;58.78
58979;BME280;44763;50.464;30.612;2023-09-19T08:02:26;100577.52;;;21.31;58.63
58979;BME280;44763;50.464;30.612;2023-09-19T08:04:30;100570.45;;;21.36;58.29
58979;BME280;44763;50.464;30.612;2023-09-19T08:06:35;100563.45;;;21.41;58.60
58979;BME280;44763;50.464;30.612;2023-09-19T08:08:39;100558.56;;;21.52;58.49
58979;BME280;44763;50.464;30.612;2023-09-19T08:10:41;100556.05;;;21.62;57.95
58979;BME280;44763;50.464;30.612;2023-09-19T08:12:48;100548.86;;;21.69;57.42
58979;BME280;44763;50.464;30.612;2023-09-19T08:14:50;100548.48;;;21.76;57.36
58979;BME280;44763;50.464;30.612;2023-09-19T08:16:56;100539.57;;;21.82;56.93
58979;BME280;44763;50.464;30.612;2023-09-19T08:18:59;100536.01;;;21.90;56.34
58979;BME280;44763;50.464;30.612;2023-09-19T08:21:01;100524.14;;;21.99;55.52
58979;BME280;44763;50.464;30.612;2023-09-19T08:23:04;100529.75;;;22.09;55.45
58979;BME280;44763;50.464;30.612;2023-09-19T08:25:07;100525.70;;;22.19;54.90
58979;BME280;44763;50.464;30.612;2023-09-19T08:27:09;100522.95;;;22.28;53.86
58979;BME280;44763;50.464;30.612;2023-09-19T08:29:12;100522.70;;;22.38;53.40
58979;BME280;44763;50.464;30.612;2023-09-19T08:31:14;100520.32;;;22.49;52.75
58979;BME280;44763;50.464;30.612;2023-09-19T08:33:16;100515.38;;;22.60;51.56
58979;BME280;44763;50.464;30.612;2023-09-19T08:35:17;100515.14;;;22.68;51.19
58979;BME280;44763;50.464;30.612;2023-09-19T08:37:21;100513.16;;;22.75;50.96
58979;BME280;44763;50.464;30.612;2023-09-19T08:39:26;100506.99;;;22.81;51.27
58979;BME280;44763;50.464;30.612;2023-09-19T08:41:27;100507.30;;;22.89;49.83
58979;BME280;44763;50.464;30.612;2023-09-19T08:43:29;100505.86;;;22.97;49.08
58979;BME280;44763;50.464;30.612;2023-09-19T08:45:31;100509.48;;;23.04;47.67
58979;BME280;44763;50.464;30.612;2023-09-19T08:47:41;100502.41;;;23.10;46.43
58979;BME280;44763;50.464;30.612;2023-09-19T08:49:57;100494.52;;;23.19;45.16
58979;BME280;44763;50.464;30.612;2023-09-19T08:52:42;100492.64;;;23.27;43.01
58979;BME280;44763;50.464;30.612;2023-09-19T08:54:38;100494.67;;;23.38;42.00
58979;BME280;44763;50.464;30.612;2023-09-19T08:56:43;100493.65;;;23.45;41.69
58979;BME280;44763;50.464;30.612;2023-09-19T08:58:51;100491.15;;;23.50;41.22
58979;BME280;44763;50.464;30.612;2023-09-19T09:00:56;100487.45;;;23.54;41.07
58979;BME280;44763;50.464;30.612;2023-09-19T09:03:00;100479.77;;;23.55;40.62
58979;BME280;44763;50.464;30.612;2023-09-19T09:05:04;100488.82;;;23.58;40.62
58979;BME280;44763;50.464;30.612;2023-09-19T09:07:11;100472.27;;;23.64;40.45
58979;BME280;44763;50.464;30.612;2023-09-19T09:09:15;100476.69;;;23.66;40.04
58979;BME280;44763;50.464;30.612;2023-09-19T09:11:18;100467.76;;;23.67;40.09
58979;BME280;44763;50.464;30.612;2023-09-19T09:13:20;100469.55;;;23.71;39.97
58979;BME280;44763;50.464;30.612;2023-09-19T09:15:24;100472.48;;;23.75;40.00
58979;BME280;44763;50.464;30.612;2023-09-19T09:17:26;100472.70;;;23.75;39.75
58979;BME280;44763;50.464;30.612;2023-09-19T09:19:30;100465.55;;;23.80;39.95
58979;BME280;44763;50.464;30.612;2023-09-19T09:21:32;100467.23;;;23.85;39.86
58979;BME280;44763;50.464;30.612;2023-09-19T09:23:38;100466.41;;;23.84;39.26
58979;BME280;44763;50.464;30.612;2023-09-19T09:25:54;100464.79;;;23.81;39.55
58979;BME280;44763;50.464;30.612;2023-09-19T09:28:01;100465.98;;;23.81;39.95
58979;BME280;44763;50.464;30.612;2023-09-19T09:30:04;100467.83;;;23.81;39.49
58979;BME280;44763;50.464;30.612;2023-09-19T09:32:28;100464.02;;;23.84;39.69
58979;BME280;44763;50.464;30.612;2023-09-19T09:34:35;100457.86;;;23.85;39.56
58979;BME280;44763;50.464;30.612;2023-09-19T09:36:38;100460.91;;;23.88;39.38
58979;BME280;44763;50.464;30.612;2023-09-19T09:38:46;100462.16;;;23.89;39.03
58979;BME280;44763;50.464;30.612;2023-09-19T09:40:51;100455.63;;;23.94;39.10
58979;BME280;44763;50.464;30.612;2023-09-19T09:42:56;100454.30;;;24.01;38.74
58979;BME280;44763;50.464;30.612;2023-09-19T09:45:20;100452.72;;;24.05;38.68
58979;BME280;44763;50.464;30.612;2023-09-19T09:47:50;100445.41;;;24.11;38.59
58979;BME280;44763;50.464;30.612;2023-09-19T09:49:58;100444.85;;;24.14;37.50
58979;BME280;44763;50.464;30.612;2023-09-19T09:52:09;100443.60;;;24.16;37.29
58979;BME280;44763;50.464;30.612;2023-09-19T09:54:20;100452.96;;;24.15;37.19
58979;BME280;44763;50.464;30.612;2023-09-19T09:56:22;100438.38;;;24.13;37.06
58979;BME280;44763;50.464;30.612;2023-09-19T09:58:24;100436.30;;;24.14;36.98
58979;BME280;44763;50.464;30.612;2023-09-19T10:00:31;100446.89;;;24.13;37.09
58979;BME280;44763;50.464;30.612;2023-09-19T10:02:43;100440.66;;;24.13;37.01
58979;BME280;44763;50.464;30.612;2023-09-19T10:04:48;100442.45;;;24.17;37.08
58979;BME280;44763;50.464;30.612;2023-09-19T10:06:53;100441.57;;;24.24;36.85
58979;BME280;44763;50.464;30.612;2023-09-19T10:09:04;100436.09;;;24.28;36.30
58979;BME280;44763;50.464;30.612;2023-09-19T10:11:17;100429.78;;;24.26;36.59
58979;BME280;44763;50.464;30.612;2023-09-19T10:13:22;100427.94;;;24.27;36.72
58979;BME280;44763;50.464;30.612;2023-09-19T10:15:27;100434.48;;;24.24;36.53
58979;BME280;44763;50.464;30.612;2023-09-19T10:17:34;100425.89;;;24.22;36.58
58979;BME280;44763;50.464;30.612;2023-09-19T10:21:54;100423.80;;;24.23;35.95
58979;BME280;44763;50.464;30.612;2023-09-19T10:25:55;100423.15;;;24.23;35.77
58979;BME280;44763;50.464;30.612;2023-09-19T10:28:02;100420.69;;;24.26;35.79
58979;BME280;44763;50.464;30.612;2023-09-19T10:30:07;100421.93;;;24.28;35.77
58979;BME280;44763;50.464;30.612;2023-09-19T10:32:11;100417.13;;;24.32;35.78
58979;BME280;44763;50.464;30.612;2023-09-19T10:34:20;100413.74;;;24.35;36.07
58979;BME280;44763;50.464;30.612;2023-09-19T10:36:24;100411.70;;;24.40;36.14
58979;BME280;44763;50.464;30.612;2023-09-19T10:38:28;100408.08;;;24.46;36.26
58979;BME280;44763;50.464;30.612;2023-09-19T10:40:32;100406.02;;;24.53;36.26
58979;BME280;44763;50.464;30.612;2023-09-19T10:42:38;100408.33;;;24.59;36.41
58979;BME280;44763;50.464;30.612;2023-09-19T10:44:41;100399.23;;;24.68;36.11
58979;BME280;44763;50.464;30.612;2023-09-19T10:46:45;100403.53;;;24.77;35.93
58979;BME280;44763;50.464;30.612;2023-09-19T10:48:47;100405.80;;;24.79;35.73
58979;BME280;44763;50.464;30.612;2023-09-19T10:51:10;100398.67;;;24.77;35.04
58979;BME280;44763;50.464;30.612;2023-09-19T10:53:13;100393.85;;;24.73;35.01
58979;BME280;44763;50.464;30.612;2023-09-19T10:55:17;100391.31;;;24.69;34.78